Time;durP1;ratioP1;P1;durP2;ratioP2;P2;SDS_P1;SDS_P2;PMS_P1;PMS_P2;Temp;Humidity;BMP_temperature;BMP_pressure;BME280_temperature;BME280_humidity;BME280_pressure;Samples;Min_cycle;Max_cycle;Signal;HPM_P1;HPM_P2
2021/11/28 00:00:07;;;;;;;5.05;2.90;;;;;;;14.13;76.38;100346.34;144993;573;6002;-81
2021/11/28 00:02:35;;;;;;;5.40;3.08;;;;;;;14.25;75.23;100350.78;144994;600;5002;-81
2021/11/28 00:05:04;;;;;;;6.85;3.25;;;;;;;14.14;75.30;100355.91;144994;569;5002;-80
2021/11/28 00:07:49;;;;;;;7.70;5.68;;;;;;;14.03;75.80;100366.25;144994;636;5002;-80
2021/11/28 00:10:41;;;;;;;8.63;7.20;;;;;;;13.78;77.58;100366.00;144994;573;5002;-80
2021/11/28 00:13:08;;;;;;;11.12;8.88;;;;;;;13.66;78.25;100351.94;144994;599;5004;-80
2021/11/28 00:16:01;;;;;;;;;;;;;;;;;;;;;
2021/11/28 00:18:56;;;;;;;;;;;;;;;;;;;;;
2021/11/28 00:21:25;;;;;;;11.10;9.45;;;;;;;14.05;75.95;100358.44;144994;568;5004;-81
2021/11/28 00:23:51;;;;;;;10.77;8.65;;;;;;;13.97;75.76;100345.31;144994;614;5004;-80
2021/11/28 00:26:18;;;;;;;8.82;7.93;;;;;;;13.82;76.88;100346.03;144994;563;5004;-81
2021/11/28 00:28:47;;;;;;;9.65;7.82;;;;;;;14.04;75.18;100339.28;144994;568;5004;-81
2021/11/28 00:31:13;;;;;;;9.20;8.10;;;;;;;13.82;76.99;100334.72;144994;603;5004;-80
2021/11/28 00:33:40;;;;;;;9.80;7.53;;;;;;;13.88;76.37;100324.34;144994;581;5004;-81
2021/11/28 00:36:09;;;;;;;9.82;7.20;;;;;;;14.07;74.18;100330.62;144993;585;5004;-80
2021/11/28 00:38:36;;;;;;;8.77;7.05;;;;;;;14.09;75.05;100340.22;144994;581;5002;-81
2021/11/28 00:41:02;;;;;;;10.00;7.62;;;;;;;14.15;74.14;100339.41;144994;597;5002;-80
2021/11/28 00:43:29;;;;;;;8.85;7.03;;;;;;;14.11;75.72;100345.44;144994;642;5002;-82
2021/11/28 00:45:55;;;;;;;11.23;7.97;;;;;;;14.08;74.59;100351.53;144994;604;5002;-81
2021/11/28 00:48:24;;;;;;;8.52;7.65;;;;;;;14.14;74.25;100348.06;144994;608;5002;-80
2021/11/28 00:51:00;;;;;;;8.55;7.65;;;;;;;14.08;74.86;100348.91;144994;572;5002;-81
2021/11/28 00:53:27;;;;;;;8.23;7.32;;;;;;;14.21;73.61;100328.16;144994;575;5002;-81
2021/11/28 00:55:54;;;;;;;8.80;7.60;;;;;;;14.31;73.81;100327.34;144994;564;5002;-81
2021/11/28 00:58:20;;;;;;;8.10;7.18;;;;;;;14.34;73.39;100329.97;144994;589;5002;-82
2021/11/28 01:00:47;;;;;;;9.35;7.85;;;;;;;14.42;73.26;100341.34;144994;586;5002;-82
2021/11/28 01:03:13;;;;;;;9.75;7.85;;;;;;;14.48;73.16;100354.47;144994;578;5002;-81
2021/11/28 01:05:39;;;;;;;8.23;7.37;;;;;;;14.54;72.83;100350.16;144994;592;5002;-80
2021/11/28 01:08:06;;;;;;;8.35;7.22;;;;;;;14.49;72.59;100350.09;144994;569;5002;-81
2021/11/28 01:10:35;;;;;;;7.82;7.03;;;;;;;14.43;72.75;100355.31;144994;617;5002;-81
2021/11/28 01:13:01;;;;;;;8.00;6.80;;;;;;;14.42;72.96;100354.41;144994;569;5002;-80
2021/11/28 01:15:28;;;;;;;8.00;7.15;;;;;;;14.38;72.73;100357.88;144994;584;5002;-80
2021/11/28 01:17:56;;;;;;;8.30;7.40;;;;;;;14.29;73.37;100347.34;144994;637;5002;-81
2021/11/28 01:20:22;;;;;;;9.00;7.68;;;;;;;14.29;73.12;100357.81;144994;571;5002;-81
2021/11/28 01:22:49;;;;;;;8.43;7.53;;;;;;;14.24;73.03;100359.50;144994;573;5002;-81
2021/11/28 01:25:15;;;;;;;8.60;6.80;;;;;;;14.12;74.58;100368.06;144994;595;5002;-81
2021/11/28 01:27:44;;;;;;;9.45;7.70;;;;;;;14.18;73.52;100368.12;144994;572;5002;-81
2021/11/28 01:30:10;;;;;;;8.43;7.53;;;;;;;14.21;73.17;100380.34;144994;613;5002;-80
2021/11/28 01:32:39;;;;;;;9.15;7.60;;;;;;;14.26;72.77;100378.66;144994;587;5002;-80
2021/11/28 01:35:09;;;;;;;10.20;7.53;;;;;;;14.29;73.08;100374.31;144994;608;5002;-80
2021/11/28 01:37:39;;;;;;;9.68;7.40;;;;;;;14.29;72.83;100376.06;144994;586;5002;-80
2021/11/28 01:40:12;;;;;;;9.23;7.15;;;;;;;14.29;73.07;100376.94;144993;581;5002;-81
2021/11/28 01:43:04;;;;;;;8.88;7.05;;;;;;;14.30;72.96;100381.31;144994;616;5002;-81
2021/11/28 01:45:33;;;;;;;8.68;6.43;;;;;;;14.33;72.82;100406.56;144994;571;5004;-80
2021/11/28 01:48:04;;;;;;;7.72;6.15;;;;;;;14.34;72.99;100405.72;144994;581;5004;-81
2021/11/28 01:50:32;;;;;;;9.02;6.68;;;;;;;14.34;72.88;100398.75;144994;589;5004;-80
2021/11/28 01:53:02;;;;;;;7.32;5.82;;;;;;;14.34;72.74;100403.97;144994;617;5004;-81
2021/11/28 01:55:32;;;;;;;9.38;6.18;;;;;;;14.33;72.85;100407.44;144994;599;5004;-80
2021/11/28 01:58:01;;;;;;;6.68;5.97;;;;;;;14.33;72.58;100411.78;144994;599;5004;-80
2021/11/28 02:00:33;;;;;;;6.47;5.75;;;;;;;14.25;73.03;100413.44;144994;608;5004;-80
2021/11/28 02:03:01;;;;;;;6.62;5.53;;;;;;;14.26;72.54;100425.66;144994;617;5004;-79
2021/11/28 02:05:29;;;;;;;7.07;5.55;;;;;;;14.21;72.50;100428.22;144994;618;5004;-80
2021/11/28 02:07:57;;;;;;;6.15;5.40;;;;;;;14.20;72.44;100407.31;144994;571;5004;-80
2021/11/28 02:10:24;;;;;;;5.30;4.80;;;;;;;14.20;73.02;100402.09;144994;562;5004;-81
2021/11/28 02:12:51;;;;;;;5.75;4.30;;;;;;;14.21;72.55;100403.84;144994;614;5004;-80
2021/11/28 02:15:19;;;;;;;5.55;4.05;;;;;;;14.10;72.55;100399.37;144994;575;5004;-80
2021/11/28 02:17:52;;;;;;;4.22;3.62;;;;;;;14.10;72.68;100407.22;144994;613;5004;-80
2021/11/28 02:20:26;;;;;;;4.75;3.95;;;;;;;14.13;72.93;100407.25;144994;607;5004;-80
2021/11/28 02:22:54;;;;;;;4.35;3.40;;;;;;;14.15;72.23;100412.47;144994;602;5004;-80
2021/11/28 02:25:24;;;;;;;4.07;3.37;;;;;;;14.14;72.50;100408.09;144994;625;5004;-81
2021/11/28 02:27:53;;;;;;;5.03;3.20;;;;;;;14.14;72.50;100426.38;144994;619;5004;-81
2021/11/28 02:30:20;;;;;;;4.25;3.72;;;;;;;14.16;72.59;100419.47;144994;608;5004;-82
2021/11/28 02:32:50;;;;;;;4.70;3.75;;;;;;;14.11;72.50;100424.63;144994;619;5004;-81
2021/11/28 02:35:19;;;;;;;4.35;3.60;;;;;;;14.13;73.02;100424.66;144994;591;5004;-81
2021/11/28 02:37:47;;;;;;;5.65;4.47;;;;;;;14.13;72.89;100415.06;144994;624;5004;-80
2021/11/28 02:40:17;;;;;;;7.78;4.80;;;;;;;14.14;72.61;100405.50;144994;568;5004;-80
2021/11/28 02:42:45;;;;;;;6.50;4.90;;;;;;;14.03;73.16;100417.56;144994;627;5004;-80
2021/11/28 02:45:13;;;;;;;7.15;5.28;;;;;;;14.05;72.82;100416.75;144994;571;5004;-81
2021/11/28 02:47:43;;;;;;;6.47;4.97;;;;;;;14.07;73.00;100417.63;144994;627;5004;-80
2021/11/28 02:50:14;;;;;;;9.15;5.45;;;;;;;14.05;72.74;100405.44;144994;597;5004;-80
2021/11/28 02:52:41;;;;;;;7.45;5.35;;;;;;;14.07;72.89;100406.31;144994;573;5004;-81
2021/11/28 02:55:08;;;;;;;7.60;5.62;;;;;;;14.05;72.64;100418.47;144994;563;5004;-80
2021/11/28 02:57:35;;;;;;;8.60;5.45;;;;;;;14.01;73.22;100417.53;144994;585;5004;-80
2021/11/28 03:00:02;;;;;;;8.98;5.95;;;;;;;14.00;73.28;100428.88;144994;609;5004;-80
2021/11/28 03:02:29;;;;;;;6.75;5.97;;;;;;;13.96;73.00;100424.47;144994;589;5004;-80
2021/11/28 03:04:55;;;;;;;6.10;5.20;;;;;;;13.86;73.91;100422.63;144994;561;5004;-82
2021/11/28 03:07:22;;;;;;;6.85;5.43;;;;;;;13.91;72.93;100419.19;144993;567;5004;-80
2021/11/28 03:09:50;;;;;;;8.35;5.90;;;;;;;13.94;73.39;100419.22;144994;580;5002;-81
2021/11/28 03:12:16;;;;;;;7.18;5.57;;;;;;;13.93;72.68;100413.97;144994;570;5002;-82
2021/11/28 03:14:43;;;;;;;8.93;5.75;;;;;;;13.97;72.76;100407.94;144994;590;5002;-82
2021/11/28 03:17:21;;;;;;;8.10;4.65;;;;;;;14.02;72.65;100410.63;144994;608;5002;-81
2021/11/28 03:20:33;;;;;;;;;;;;;;;;;;;;;
2021/11/28 03:23:41;;;;;;;5.50;3.70;;;;;;;14.29;72.75;100404.78;144994;571;5002;-81
2021/11/28 03:26:16;;;;;;;6.00;4.30;;;;;;;14.43;72.28;100408.41;144994;569;5002;-81
2021/11/28 03:28:50;;;;;;;5.40;3.92;;;;;;;14.50;71.89;100398.88;144994;607;5002;-81
2021/11/28 03:31:17;;;;;;;5.25;4.10;;;;;;;14.56;71.70;100408.53;144994;578;5002;-81
2021/11/28 03:33:44;;;;;;;4.30;3.58;;;;;;;14.56;71.35;100409.38;144994;579;5002;-82
2021/11/28 03:36:12;;;;;;;3.58;3.08;;;;;;;14.51;71.07;100413.69;144994;573;5002;-81
2021/11/28 03:38:40;;;;;;;4.68;3.85;;;;;;;14.36;71.24;100424.88;144994;589;5002;-81
2021/11/28 03:41:07;;;;;;;5.47;3.53;;;;;;;14.32;71.59;100415.28;144994;592;5002;-81
2021/11/28 03:43:34;;;;;;;5.80;3.85;;;;;;;14.30;71.32;100406.53;144994;772;5002;-81
2021/11/28 03:46:01;;;;;;;5.03;3.65;;;;;;;14.25;71.22;100409.13;144994;586;5002;-81
2021/11/28 03:48:28;;;;;;;4.78;3.22;;;;;;;14.25;71.24;100403.00;144994;658;5002;-82
2021/11/28 03:50:54;;;;;;;6.03;3.67;;;;;;;14.24;71.35;100398.66;144994;599;5002;-81
2021/11/28 03:53:21;;;;;;;6.47;4.10;;;;;;;14.20;71.24;100402.09;144993;607;5002;-81
2021/11/28 03:55:48;;;;;;;5.85;3.53;;;;;;;14.15;70.90;100397.69;144994;595;5002;-80
2021/11/28 03:58:15;;;;;;;4.50;3.08;;;;;;;14.00;71.34;100410.59;144994;636;5002;-81
2021/11/28 04:00:42;;;;;;;3.50;2.90;;;;;;;14.00;71.49;100418.44;144994;569;5002;-81
2021/11/28 04:03:10;;;;;;;3.78;2.70;;;;;;;13.99;70.67;100434.06;144994;749;5002;-82
2021/11/28 04:05:39;;;;;;;3.50;2.50;;;;;;;13.67;71.85;100439.78;144994;565;5002;-81
2021/11/28 04:08:06;;;;;;;4.03;2.45;;;;;;;13.69;71.42;100451.09;144994;581;5002;-81
2021/11/28 04:10:33;;;;;;;6.03;2.80;;;;;;;13.65;71.00;100455.41;144994;612;5002;-81
2021/11/28 04:13:00;;;;;;;3.97;2.60;;;;;;;13.66;71.46;100449.31;144994;563;5002;-81
2021/11/28 04:15:27;;;;;;;3.87;2.53;;;;;;;13.70;71.77;100469.38;144994;571;5002;-81
2021/11/28 04:17:54;;;;;;;3.22;2.70;;;;;;;13.70;71.81;100471.13;144994;594;5002;-81
2021/11/28 04:20:20;;;;;;;4.03;2.80;;;;;;;13.68;71.44;100462.38;144994;579;5002;-82
2021/11/28 04:22:47;;;;;;;4.25;2.10;;;;;;;13.46;71.24;100461.22;144994;647;5002;-81
2021/11/28 04:25:15;;;;;;;3.55;1.75;;;;;;;13.30;70.03;100455.75;144994;583;5002;-81
2021/11/28 04:27:42;;;;;;;5.28;3.03;;;;;;;12.95;72.82;100466.53;144994;579;5002;-81
2021/11/28 04:30:11;;;;;;;6.00;3.45;;;;;;;13.27;72.19;100478.28;144994;620;5002;-82
2021/11/28 04:32:37;;;;;;;5.62;2.97;;;;;;;13.10;73.50;100484.13;144994;586;5002;-81
2021/11/28 04:35:04;;;;;;;3.87;3.05;;;;;;;13.24;72.91;100446.13;144994;617;5002;-81
2021/11/28 04:37:31;;;;;;;5.03;3.03;;;;;;;13.37;72.46;100469.78;144994;595;4568;-80
2021/11/28 04:39:58;;;;;;;7.00;3.60;;;;;;;13.38;72.04;100467.22;144994;698;4572;-81
2021/11/28 04:42:24;;;;;;;5.22;3.37;;;;;;;13.48;71.65;100469.94;144993;580;6002;-81
2021/11/28 04:44:51;;;;;;;5.12;3.40;;;;;;;13.50;71.76;100470.84;144992;575;6002;-80
2021/11/28 04:47:20;;;;;;;5.15;3.40;;;;;;;13.55;71.78;100472.66;144992;585;6002;-81
2021/11/28 04:49:48;;;;;;;3.95;2.37;;;;;;;13.60;71.25;100478.81;144992;579;6002;-81
2021/11/28 04:52:15;;;;;;;7.05;3.45;;;;;;;13.62;70.96;100491.88;144992;569;6002;-81
2021/11/28 04:54:41;;;;;;;4.78;3.15;;;;;;;13.69;70.78;100485.88;144992;632;6002;-81
2021/11/28 04:57:08;;;;;;;5.45;3.55;;;;;;;13.74;70.48;100497.28;144992;589;6002;-81
2021/11/28 04:59:35;;;;;;;8.00;3.90;;;;;;;13.73;71.44;100497.25;144992;569;6002;-80
2021/11/28 05:02:01;;;;;;;6.60;3.92;;;;;;;13.75;70.84;100524.22;144992;596;6002;-81
2021/11/28 05:04:28;;;;;;;5.35;3.65;;;;;;;13.75;71.03;100517.25;144992;573;6002;-81
2021/11/28 05:06:54;;;;;;;5.70;4.03;;;;;;;13.74;70.67;100527.69;144992;615;6002;-81
2021/11/28 05:09:21;;;;;;;7.18;4.28;;;;;;;13.74;70.44;100543.31;144992;691;6002;-80
2021/11/28 05:11:48;;;;;;;6.62;3.83;;;;;;;13.75;70.52;100552.91;144992;635;6002;-81
2021/11/28 05:14:17;;;;;;;5.22;3.67;;;;;;;13.77;71.25;100556.41;144992;769;6002;-81
2021/11/28 05:16:44;;;;;;;6.47;3.90;;;;;;;13.77;70.43;100557.28;144992;572;6002;-81
2021/11/28 05:19:10;;;;;;;5.18;3.72;;;;;;;13.71;70.29;100548.50;144992;582;6002;-81
2021/11/28 05:21:37;;;;;;;5.90;3.58;;;;;;;13.75;71.43;100565.97;144992;788;6002;-81
2021/11/28 05:24:06;;;;;;;5.65;3.65;;;;;;;13.47;69.56;100557.72;144992;598;6002;-80
2021/11/28 05:26:32;;;;;;;5.07;3.60;;;;;;;13.55;71.25;100566.56;144992;577;6002;-81
2021/11/28 05:28:59;;;;;;;5.43;3.15;;;;;;;13.38;70.08;100558.47;144992;728;6002;-81
2021/11/28 05:31:26;;;;;;;4.62;3.40;;;;;;;13.42;71.52;100572.41;144992;605;6002;-82
2021/11/28 05:33:52;;;;;;;7.93;3.37;;;;;;;13.47;70.98;100568.13;144992;669;6002;-81
2021/11/28 05:36:19;;;;;;;3.92;3.37;;;;;;;13.53;70.79;100581.28;144992;592;6002;-81
2021/11/28 05:38:45;;;;;;;5.30;3.45;;;;;;;13.60;71.27;100559.66;144992;584;6002;-80
2021/11/28 05:41:15;;;;;;;4.80;3.83;;;;;;;13.70;70.98;100567.62;144992;582;6002;-81
2021/11/28 05:43:45;;;;;;;6.18;4.20;;;;;;;13.76;70.24;100566.00;144992;574;6002;-81
2021/11/28 05:46:12;;;;;;;5.97;3.90;;;;;;;13.83;70.59;100558.25;144992;757;6002;-80
2021/11/28 05:48:38;;;;;;;4.95;4.12;;;;;;;13.90;70.37;100544.41;144992;726;6002;-80
2021/11/28 05:51:06;;;;;;;6.68;4.70;;;;;;;13.96;70.10;100539.28;144992;602;6002;-81
2021/11/28 05:53:33;;;;;;;6.50;4.85;;;;;;;14.03;70.77;100535.91;144992;604;6002;-81
2021/11/28 05:56:00;;;;;;;5.30;4.62;;;;;;;14.12;70.44;100545.56;144992;632;6002;-80
2021/11/28 05:58:26;;;;;;;8.70;4.97;;;;;;;14.24;70.15;100560.53;144992;566;6002;-80
2021/11/28 06:00:53;;;;;;;7.32;4.80;;;;;;;14.25;69.59;100560.56;144992;569;6002;-81
2021/11/28 06:03:19;;;;;;;6.60;5.05;;;;;;;14.39;69.90;100560.69;144992;621;6002;-80
2021/11/28 06:05:48;;;;;;;7.93;5.05;;;;;;;14.66;69.32;100552.31;144992;563;6002;-81
2021/11/28 06:08:14;;;;;;;7.32;4.57;;;;;;;15.14;69.07;100568.44;144992;615;6002;-81
2021/11/28 06:10:41;;;;;;;7.15;4.85;;;;;;;15.78;68.17;100565.47;144992;579;6002;-81
2021/11/28 06:13:08;;;;;;;6.72;5.10;;;;;;;16.46;66.68;100563.16;144992;652;6002;-80
2021/11/28 06:15:34;;;;;;;13.05;4.87;;;;;;;17.08;65.55;100557.19;144992;563;6002;-81
2021/11/28 06:18:02;;;;;;;8.23;4.70;;;;;;;18.03;63.48;100553.56;144992;578;6002;-82
2021/11/28 06:20:29;;;;;;;9.43;4.80;;;;;;;18.97;61.25;100564.47;144992;575;6002;-81
2021/11/28 06:23:13;;;;;;;;;;;;;;;;;;;;;
2021/11/28 06:25:50;;;;;;;8.35;5.37;;;;;;;19.85;60.21;100603.25;144992;667;6004;-81
2021/11/28 06:28:16;;;;;;;7.85;5.03;;;;;;;20.07;59.99;100619.66;144992;686;6004;-80
2021/11/28 06:30:43;;;;;;;6.60;4.97;;;;;;;20.18;59.93;100630.09;144992;600;6004;-80
2021/11/28 06:33:09;;;;;;;6.20;5.40;;;;;;;20.20;60.49;100627.44;144992;593;6004;-81
2021/11/28 06:35:36;;;;;;;6.35;5.45;;;;;;;20.14;60.22;100631.03;144992;580;6004;-82
2021/11/28 06:38:03;;;;;;;8.20;5.85;;;;;;;20.08;60.52;100629.31;144992;574;6004;-81
2021/11/28 06:40:29;;;;;;;7.60;5.45;;;;;;;20.08;60.50;100626.69;144992;567;6004;-80
2021/11/28 06:42:56;;;;;;;5.93;5.15;;;;;;;20.13;60.41;100629.28;144992;609;6004;-81
2021/11/28 06:45:23;;;;;;;7.60;5.30;;;;;;;20.19;60.07;100613.41;144992;611;6004;-82
2021/11/28 06:47:49;;;;;;;6.47;4.85;;;;;;;20.26;59.96;100595.75;144992;597;6004;-81
2021/11/28 06:50:17;;;;;;;5.50;4.95;;;;;;;20.33;59.68;100596.53;144992;589;6004;-81
2021/11/28 06:52:44;;;;;;;8.25;5.70;;;;;;;20.15;59.51;100593.22;144992;623;6004;-81
2021/11/28 06:55:12;;;;;;;7.50;6.00;;;;;;;20.00;59.28;100614.50;144992;578;6004;-81
2021/11/28 06:57:38;;;;;;;5.95;5.12;;;;;;;19.75;59.11;100619.97;144992;633;6004;-81
2021/11/28 07:00:06;;;;;;;6.00;4.60;;;;;;;19.30;59.17;100624.75;144991;645;6000;-81
2021/11/28 07:02:32;;;;;;;6.68;4.78;;;;;;;18.98;59.09;100633.75;144992;564;6002;-81
2021/11/28 07:04:59;;;;;;;7.22;4.78;;;;;;;18.68;59.22;100638.25;144992;605;6002;-81
2021/11/28 07:07:28;;;;;;;4.05;3.08;;;;;;;18.33;58.64;100641.03;144992;697;6002;-81
2021/11/28 07:09:55;;;;;;;4.97;3.75;;;;;;;18.11;59.64;100641.09;144992;569;6002;-80
2021/11/28 07:12:22;;;;;;;5.25;3.53;;;;;;;17.55;56.70;100624.53;144992;609;6002;-80
2021/11/28 07:14:50;;;;;;;6.70;4.57;;;;;;;17.13;59.54;100616.63;144992;595;6002;-81
2021/11/28 07:17:18;;;;;;;5.75;3.80;;;;;;;16.84;60.52;100630.50;144992;647;6002;-81
2021/11/28 07:19:45;;;;;;;6.05;4.60;;;;;;;17.00;61.27;100614.84;144992;716;6002;-80
2021/11/28 07:22:12;;;;;;;4.70;3.65;;;;;;;17.02;60.81;100618.34;144992;582;6002;-81
2021/11/28 07:24:39;;;;;;;4.00;2.97;;;;;;;16.69;58.81;100622.63;144991;588;6002;-81
2021/11/28 07:27:06;;;;;;;5.78;3.03;;;;;;;16.65;59.98;100632.19;144992;585;6002;-84
2021/11/28 07:29:42;;;;;;;3.87;3.00;;;;;;;16.90;61.66;100621.84;144992;569;6002;-81
2021/11/28 07:32:10;;;;;;;;;;;;;;;17.08;59.17;100609.63;144997;910;6002;-80
2021/11/28 07:34:37;;;;;;;3.28;1.73;;;;;;;17.68;60.53;100615.75;144997;695;6002;-81
2021/11/28 07:37:04;;;;;;;5.15;2.10;;;;;;;18.16;60.33;100626.19;144992;586;6002;-80
2021/11/28 07:39:30;;;;;;;5.90;2.55;;;;;;;18.68;57.87;100638.25;144992;584;6002;-82
2021/11/28 07:42:02;;;;;;;2.70;1.80;;;;;;;19.00;59.52;100650.37;144992;582;6002;-82
2021/11/28 07:44:29;;;;;;;3.28;2.08;;;;;;;19.21;57.10;100644.09;144992;576;6002;-81
2021/11/28 07:46:58;;;;;;;3.95;1.70;;;;;;;19.46;58.75;100639.53;144992;609;6002;-81
2021/11/28 07:49:25;;;;;;;4.15;1.90;;;;;;;19.65;58.40;100615.69;144992;599;6002;-81
2021/11/28 07:51:52;;;;;;;1.92;1.58;;;;;;;19.75;58.37;100622.59;144992;569;6002;-82
2021/11/28 07:54:24;;;;;;;1.83;1.35;;;;;;;19.84;58.61;100621.69;144992;617;6002;-81
2021/11/28 07:56:51;;;;;;;2.87;1.60;;;;;;;19.99;58.05;100625.91;144992;607;6002;-81
2021/11/28 07:59:18;;;;;;;2.20;2.00;;;;;;;19.74;58.92;100624.38;144992;652;6002;-81
2021/11/28 08:01:44;;;;;;;4.28;1.95;;;;;;;19.42;59.30;100653.59;144992;619;6002;-80
2021/11/28 08:04:11;;;;;;;2.20;1.87;;;;;;;19.33;59.45;100659.81;144992;578;6002;-80
2021/11/28 08:06:38;;;;;;;2.83;1.85;;;;;;;19.41;60.02;100643.97;144992;565;6002;-80
2021/11/28 08:09:04;;;;;;;4.05;2.83;;;;;;;19.51;59.76;100626.34;144992;570;6002;-82
2021/11/28 08:11:31;;;;;;;3.20;2.62;;;;;;;19.47;59.63;100643.94;144992;594;6002;-80
2021/11/28 08:13:58;;;;;;;3.83;2.50;;;;;;;19.77;59.23;100641.91;144992;661;6002;-80
2021/11/28 08:16:24;;;;;;;6.03;2.80;;;;;;;20.18;55.83;100642.41;144992;590;6002;-82
2021/11/28 08:18:51;;;;;;;4.55;3.05;;;;;;;20.63;58.44;100633.06;144992;638;6002;-80
2021/11/28 08:21:18;;;;;;;3.95;3.22;;;;;;;21.05;58.16;100621.09;144992;660;6002;-81
2021/11/28 08:23:44;;;;;;;6.62;3.47;;;;;;;21.41;57.96;100624.91;144992;596;6002;-80
2021/11/28 08:26:11;;;;;;;3.78;3.37;;;;;;;21.71;54.67;100618.28;144992;597;6002;-81
2021/11/28 08:28:37;;;;;;;4.22;2.20;;;;;;;21.89;42.69;100613.56;144992;600;6002;-81
2021/11/28 08:31:03;;;;;;;4.45;1.95;;;;;;;22.11;50.73;100619.28;144992;646;6002;-81
2021/11/28 08:33:30;;;;;;;4.18;1.92;;;;;;;22.20;54.63;100636.75;144992;621;6014;-81
2021/11/28 08:35:56;;;;;;;4.53;1.67;;;;;;;21.88;41.86;100635.59;144992;678;6002;-81
2021/11/28 08:38:23;;;;;;;6.78;2.10;;;;;;;21.55;43.27;100630.88;144992;617;6002;-80
2021/11/28 08:40:49;;;;;;;2.12;1.15;;;;;;;21.51;47.50;100641.53;144992;615;6002;-81
2021/11/28 08:43:16;;;;;;;2.60;1.33;;;;;;;21.54;49.90;100644.97;144992;598;6002;-81
2021/11/28 08:45:43;;;;;;;3.25;1.30;;;;;;;21.08;50.46;100644.78;144991;611;6002;-81
2021/11/28 08:48:09;;;;;;;2.83;1.33;;;;;;;21.00;48.94;100635.22;144992;605;6002;-81
2021/11/28 08:50:39;;;;;;;3.28;1.67;;;;;;;20.61;49.20;100639.25;144992;591;6002;-80
2021/11/28 08:53:07;;;;;;;4.70;1.60;;;;;;;20.89;50.67;100639.78;144992;577;6002;-80
2021/11/28 08:55:37;;;;;;;3.33;1.45;;;;;;;20.63;52.64;100640.09;144992;570;6002;-80
2021/11/28 08:58:05;;;;;;;1.50;0.95;;;;;;;19.88;53.05;100650.59;144992;575;6002;-78
2021/11/28 09:00:32;;;;;;;1.98;1.20;;;;;;;20.19;53.19;100658.19;144992;607;6002;-80
2021/11/28 09:02:59;;;;;;;1.25;1.10;;;;;;;20.04;54.30;100637.28;144992;584;6002;-79
2021/11/28 09:05:27;;;;;;;1.30;1.00;;;;;;;20.05;54.16;100641.66;144992;578;6002;-80
2021/11/28 09:07:53;;;;;;;2.33;1.02;;;;;;;19.70;54.55;100634.94;144992;677;6002;-80
2021/11/28 09:10:20;;;;;;;1.10;0.80;;;;;;;19.33;55.18;100628.22;144992;574;6002;-79
2021/11/28 09:12:48;;;;;;;1.83;1.15;;;;;;;19.64;54.95;100621.84;144992;563;6002;-80
2021/11/28 09:15:16;;;;;;;1.62;1.05;;;;;;;19.34;55.85;100623.84;144991;592;6002;-79
2021/11/28 09:18:00;;;;;;;1.80;1.00;;;;;;;18.92;57.09;100636.41;144992;606;6002;-80
2021/11/28 09:20:37;;;;;;;1.62;1.25;;;;;;;18.50;59.07;100620.81;144992;573;6002;-79
2021/11/28 09:26:07;;;;;;;1.55;1.08;;;;;;;18.40;59.36;100591.06;144992;632;6004;-80
2021/11/28 09:28:38;;;;;;;2.65;1.35;;;;;;;18.06;60.13;100591.19;144992;567;6004;-80
2021/11/28 09:31:09;;;;;;;1.45;1.08;;;;;;;18.08;60.02;100578.06;144992;645;6004;-80
2021/11/28 09:33:41;;;;;;;1.77;1.17;;;;;;;18.28;59.15;100578.00;144992;717;6004;-81
2021/11/28 09:36:09;;;;;;;5.05;1.10;;;;;;;17.79;60.60;100572.87;144992;589;6004;-80
2021/11/28 09:38:38;;;;;;;3.12;1.35;;;;;;;18.09;59.97;100557.03;144992;562;6004;-80
2021/11/28 09:41:13;;;;;;;2.62;1.40;;;;;;;18.28;59.31;100549.97;144992;664;6004;-83
2021/11/28 09:43:49;;;;;;;4.03;1.70;;;;;;;18.41;58.27;100574.41;144992;599;6004;-79
2021/11/28 09:46:20;;;;;;;2.92;1.65;;;;;;;18.56;58.18;100589.22;144992;647;6004;-81
2021/11/28 09:48:48;;;;;;;4.07;2.35;;;;;;;18.43;56.94;100587.56;144992;566;6004;-81
2021/11/28 09:51:16;;;;;;;9.38;2.40;;;;;;;18.84;57.20;100582.09;144992;567;6004;-81
2021/11/28 09:53:44;;;;;;;12.15;8.82;;;;;;;18.93;57.61;100577.66;144992;589;6004;-80
2021/11/28 09:56:11;;;;;;;10.68;8.55;;;;;;;19.05;56.90;100564.41;144992;592;6004;-81
2021/11/28 09:58:41;;;;;;;2.20;1.10;;;;;;;19.47;56.11;100536.00;144992;595;6004;-80
2021/11/28 10:01:09;;;;;;;6.82;5.35;;;;;;;19.48;54.81;100527.19;144992;583;6004;-81
2021/11/28 10:03:36;;;;;;;3.92;1.90;;;;;;;19.49;52.91;100531.59;144992;565;6004;-80
2021/11/28 10:06:02;;;;;;;5.28;3.62;;;;;;;19.68;51.76;100529.63;144992;668;6004;-80
2021/11/28 10:08:30;;;;;;;3.28;2.05;;;;;;;19.71;49.73;100524.34;144992;652;6012;-79
2021/11/28 10:11:37;;;;;;;2.37;1.30;;;;;;;20.06;53.60;100532.72;144992;693;6013;-81
2021/11/28 10:14:05;;;;;;;6.22;1.00;;;;;;;19.44;49.16;100532.50;144992;566;6004;-78
2021/11/28 10:16:31;;;;;;;1.12;0.80;;;;;;;19.71;52.08;100518.16;144992;633;6004;-80
2021/11/28 10:18:59;;;;;;;1.55;1.30;;;;;;;19.47;55.64;100535.09;144991;610;6000;-82
2021/11/28 10:21:32;;;;;;;1.83;1.30;;;;;;;19.44;55.58;100520.22;144992;678;6002;-79
2021/11/28 10:24:11;;;;;;;3.03;1.35;;;;;;;19.34;56.23;100529.09;144992;602;6002;-79
2021/11/28 10:26:59;;;;;;;2.37;1.20;;;;;;;19.39;54.84;100516.75;144992;649;6002;-81
2021/11/28 10:29:31;;;;;;;6.62;1.20;;;;;;;19.43;54.29;100507.09;144992;570;6002;-80
2021/11/28 10:32:00;;;;;;;3.17;1.30;;;;;;;19.71;53.72;100507.63;144992;647;6002;-80
2021/11/28 10:34:38;;;;;;;2.62;1.23;;;;;;;19.77;52.83;100491.81;144992;665;6002;-80
2021/11/28 10:37:16;;;;;;;1.87;0.93;;;;;;;19.91;51.81;100508.31;144992;646;6002;-82
2021/11/28 10:39:58;;;;;;;1.92;1.02;;;;;;;19.77;45.03;100497.06;144992;619;6002;-80
2021/11/28 10:42:30;;;;;;;2.05;1.33;;;;;;;20.12;49.99;100488.75;144992;652;6002;-80
2021/11/28 10:45:24;;;;;;;4.40;1.37;;;;;;;20.06;44.81;100474.75;144992;570;6002;-79
2021/11/28 10:47:53;;;;;;;3.03;1.30;;;;;;;20.28;48.63;100462.16;144992;635;6002;-81
2021/11/28 10:50:28;;;;;;;4.70;2.15;;;;;;;20.36;45.00;100444.50;144992;592;6002;-80
2021/11/28 10:53:07;;;;;;;3.95;1.98;;;;;;;20.44;44.87;100453.16;144992;626;6002;-79
2021/11/28 10:55:46;;;;;;;2.65;1.50;;;;;;;20.29;41.64;100466.56;144992;592;6002;-82
2021/11/28 10:58:17;;;;;;;5.22;2.10;;;;;;;20.42;46.08;100464.59;144993;577;6002;-81
2021/11/28 11:01:06;;;;;;;5.55;2.28;;;;;;;20.30;45.33;100471.81;144993;650;6002;-80
2021/11/28 11:03:39;;;;;;;4.60;1.52;;;;;;;20.56;46.06;100480.22;144993;581;6000;-81
2021/11/28 11:06:25;;;;;;;7.40;3.03;;;;;;;20.47;42.28;100473.31;144993;668;6002;-81
2021/11/28 11:09:12;;;;;;;9.85;5.37;;;;;;;20.60;44.85;100464.34;144993;644;6002;-80
2021/11/28 11:11:39;;;;;;;6.18;2.62;;;;;;;20.57;42.57;100453.84;144993;619;6000;-79
2021/11/28 11:14:13;;;;;;;5.82;2.15;;;;;;;20.65;45.60;100451.13;144993;578;6002;-81
2021/11/28 11:16:45;;;;;;;4.18;1.50;;;;;;;20.72;45.28;100441.31;144993;570;6002;-80
2021/11/28 11:19:47;;;;;;;4.12;1.37;;;;;;;20.55;45.05;100447.69;144993;601;6002;-80
2021/11/28 11:22:35;;;;;;;3.92;2.15;;;;;;;20.53;44.56;100453.91;144993;701;6000;-80
2021/11/28 11:25:11;;;;;;;6.72;2.00;;;;;;;20.53;45.32;100457.41;144993;618;6000;-81
2021/11/28 11:27:40;;;;;;;3.22;1.70;;;;;;;20.63;44.63;100455.47;144993;605;6002;-80
2021/11/28 11:30:14;;;;;;;5.03;2.67;;;;;;;20.60;44.15;100459.06;144992;564;6002;-80
2021/11/28 11:33:01;;;;;;;5.70;2.72;;;;;;;20.37;44.34;100450.63;144991;586;6002;-80
2021/11/28 11:35:33;;;;;;;35.90;25.55;;;;;;;20.45;45.36;100446.97;144992;657;6000;-80
2021/11/28 11:38:03;;;;;;;13.50;9.32;;;;;;;20.46;45.77;100438.16;144992;622;6000;-80
2021/11/28 11:40:30;;;;;;;21.05;14.50;;;;;;;20.56;46.42;100443.31;144992;581;6000;-79
2021/11/28 11:42:57;;;;;;;4.62;2.45;;;;;;;20.58;44.84;100454.69;144993;592;6000;-80
2021/11/28 11:45:27;;;;;;;8.90;4.75;;;;;;;20.63;46.08;100453.75;144993;580;6002;-79
2021/11/28 11:47:55;;;;;;;18.10;13.68;;;;;;;20.73;46.16;100421.94;144993;578;6002;-78
2021/11/28 11:50:24;;;;;;;20.67;13.02;;;;;;;20.54;45.93;100414.31;144993;591;6002;-78
2021/11/28 11:52:51;;;;;;;9.07;3.60;;;;;;;20.56;46.46;100420.44;144993;582;6002;-80